TimeAKST,TemperatureF,Dew PointF,Humidity,Sea Level PressureIn,VisibilityMPH,Wind Direction,Wind SpeedMPH,Gust SpeedMPH,PrecipitationIn,Events,Conditions,WindDirDegrees,DateUTC
12:53 AM,8.1,3.0,80,29.86,10.0,Calm,Calm,-,N/A,,Overcast,0,2013-02-19 09:53:00
1:53 AM,9.0,1.0,70,29.84,10.0,NE,5.8,-,N/A,,Overcast,40,2013-02-19 10:53:00
3:53 AM,9.0,-0.0,67,29.83,10.0,Calm,Calm,-,N/A,,Overcast,0,2013-02-19 12:53:00
4:53 AM,8.1,-0.0,70,29.80,10.0,NNE,3.5,-,N/A,,Overcast,20,2013-02-19 13:53:00
5:53 AM,7.0,-0.0,73,29.79,10.0,NNE,5.8,-,N/A,,Overcast,30,2013-02-19 14:53:00
6:53 AM,8.1,-0.0,70,29.78,10.0,Calm,Calm,-,N/A,,Overcast,0,2013-02-19 15:53:00
7:53 AM,7.0,-2.0,67,29.76,10.0,North,4.6,-,N/A,,Overcast,10,2013-02-19 16:53:00
8:53 AM,7.0,-0.9,70,29.74,10.0,North,4.6,-,N/A,,Mostly Cloudy,360,2013-02-19 17:53:00
9:53 AM,8.1,-2.9,61,29.70,10.0,North,5.8,-,N/A,,Mostly Cloudy,10,2013-02-19 18:53:00
10:53 AM,9.0,-0.9,64,29.68,10.0,North,6.9,-,N/A,,Overcast,360,2013-02-19 19:53:00
11:53 AM,10.0,-0.0,64,29.66,10.0,North,6.9,-,N/A,,Overcast,360,2013-02-19 20:53:00
12:53 PM,10.9,1.0,64,29.62,10.0,North,9.2,-,N/A,,Mostly Cloudy,350,2013-02-19 21:53:00
1:53 PM,12.9,1.9,62,29.58,10.0,NNE,9.2,-,N/A,,Overcast,20,2013-02-19 22:53:00
3:53 PM,14.0,3.0,62,29.47,10.0,NNE,8.1,-,N/A,,Overcast,20,2013-02-20 00:53:00
4:53 PM,16.0,3.0,57,29.43,10.0,North,9.2,-,N/A,,Overcast,10,2013-02-20 01:53:00
5:53 PM,17.1,3.9,56,29.39,10.0,NE,5.8,-,N/A,,Overcast,40,2013-02-20 02:53:00
6:53 PM,16.0,6.1,65,29.38,10.0,ENE,3.5,-,N/A,,Overcast,60,2013-02-20 03:53:00
7:32 PM,17.6,6.8,63,29.35,7.0,NNE,5.8,-,0.00,Snow,Light Snow,20,2013-02-20 04:32:00
7:39 PM,15.8,6.8,68,29.35,4.0,NE,4.6,-,0.00,Snow,Light Snow,40,2013-02-20 04:39:00
7:40 PM,15.8,6.8,68,29.35,3.0,NE,4.6,-,0.00,Snow,Light Snow,40,2013-02-20 04:40:00
7:44 PM,17.6,6.8,63,29.35,2.0,NNE,4.6,-,0.00,Snow,Light Snow,20,2013-02-20 04:44:00
7:49 PM,17.6,8.6,68,29.35,0.8,NE,3.5,-,0.00,Snow,Light Snow,40,2013-02-20 04:49:00
7:51 PM,17.6,8.6,68,29.35,1.0,NE,4.6,-,0.00,Snow,Light Snow,40,2013-02-20 04:51:00
7:53 PM,17.1,8.1,68,29.36,1.0,NNE,4.6,-,0.00,Snow,Light Snow,20,2013-02-20 04:53:00
8:53 PM,17.1,12.0,81,29.34,1.0,NNE,6.9,-,0.02,Snow,Light Snow,20,2013-02-20 05:53:00
9:21 PM,17.6,12.2,79,29.31,2.5,North,10.4,-,0.00,Snow,Light Snow,360,2013-02-20 06:21:00
9:22 PM,17.6,12.2,79,29.31,2.0,North,10.4,-,0.00,Snow,Light Snow,360,2013-02-20 06:22:00
9:23 PM,17.6,12.2,79,29.31,2.0,North,11.5,-,0.00,Snow,Light Snow,10,2013-02-20 06:23:00
9:39 PM,17.6,12.2,79,29.31,1.5,North,10.4,-,0.01,Snow,Light Snow,360,2013-02-20 06:39:00
9:53 PM,17.1,12.9,84,29.32,1.5,North,9.2,-,0.01,Snow,Light Snow,10,2013-02-20 06:53:00
10:53 PM,17.1,12.9,84,29.31,1.5,North,10.4,-,0.01,Snow,Light Snow,10,2013-02-20 07:53:00
11:53 PM,17.1,14.0,88,29.30,1.0,North,8.1,-,0.02,Snow,Light Snow,10,2013-02-20 08:53:00